sensor_id;sensor_type;location;lat;lon;timestamp;P1;durP1;ratioP1;P2;durP2;ratioP2
45642;SDS011;31358;46.008;11.144;2023-12-29T00:02:09;12.18;;;6.95;;
45642;SDS011;31358;46.008;11.144;2023-12-29T00:04:35;9.77;;;6.13;;
45642;SDS011;31358;46.008;11.144;2023-12-29T00:07:01;10.95;;;6.38;;
45642;SDS011;31358;46.008;11.144;2023-12-29T00:09:27;12.23;;;7.20;;
45642;SDS011;31358;46.008;11.144;2023-12-29T00:11:53;12.57;;;6.80;;
45642;SDS011;31358;46.008;11.144;2023-12-29T00:14:21;14.45;;;7.38;;
45642;SDS011;31358;46.008;11.144;2023-12-29T00:16:47;13.35;;;7.90;;
45642;SDS011;31358;46.008;11.144;2023-12-29T00:19:13;12.75;;;7.80;;
45642;SDS011;31358;46.008;11.144;2023-12-29T00:21:39;12.15;;;7.18;;
45642;SDS011;31358;46.008;11.144;2023-12-29T00:24:05;12.15;;;7.10;;
45642;SDS011;31358;46.008;11.144;2023-12-29T00:26:31;14.05;;;8.60;;
45642;SDS011;31358;46.008;11.144;2023-12-29T00:28:56;12.75;;;7.50;;
45642;SDS011;31358;46.008;11.144;2023-12-29T00:31:22;13.02;;;8.73;;
45642;SDS011;31358;46.008;11.144;2023-12-29T00:33:48;11.52;;;7.72;;
45642;SDS011;31358;46.008;11.144;2023-12-29T00:36:17;10.02;;;6.75;;
45642;SDS011;31358;46.008;11.144;2023-12-29T00:38:44;12.70;;;6.85;;
45642;SDS011;31358;46.008;11.144;2023-12-29T00:41:09;12.75;;;7.13;;
45642;SDS011;31358;46.008;11.144;2023-12-29T00:43:35;12.57;;;7.47;;
45642;SDS011;31358;46.008;11.144;2023-12-29T00:46:02;15.40;;;8.07;;
45642;SDS011;31358;46.008;11.144;2023-12-29T00:48:28;11.20;;;7.05;;
45642;SDS011;31358;46.008;11.144;2023-12-29T00:50:54;12.45;;;7.88;;
45642;SDS011;31358;46.008;11.144;2023-12-29T00:53:20;16.85;;;7.93;;
45642;SDS011;31358;46.008;11.144;2023-12-29T00:55:46;12.68;;;7.50;;
45642;SDS011;31358;46.008;11.144;2023-12-29T00:58:11;13.18;;;7.72;;
45642;SDS011;31358;46.008;11.144;2023-12-29T01:00:37;13.40;;;8.68;;
45642;SDS011;31358;46.008;11.144;2023-12-29T01:03:03;13.30;;;7.63;;
45642;SDS011;31358;46.008;11.144;2023-12-29T01:05:29;13.73;;;7.55;;
45642;SDS011;31358;46.008;11.144;2023-12-29T01:07:54;13.65;;;8.25;;
45642;SDS011;31358;46.008;11.144;2023-12-29T01:10:21;15.65;;;8.32;;
45642;SDS011;31358;46.008;11.144;2023-12-29T01:12:46;12.63;;;7.85;;
45642;SDS011;31358;46.008;11.144;2023-12-29T01:15:12;12.38;;;7.40;;
45642;SDS011;31358;46.008;11.144;2023-12-29T01:17:38;10.98;;;7.03;;
45642;SDS011;31358;46.008;11.144;2023-12-29T01:20:04;11.20;;;6.93;;
45642;SDS011;31358;46.008;11.144;2023-12-29T01:22:30;13.35;;;8.20;;
45642;SDS011;31358;46.008;11.144;2023-12-29T01:24:58;13.55;;;7.47;;
45642;SDS011;31358;46.008;11.144;2023-12-29T01:27:25;12.38;;;7.57;;
45642;SDS011;31358;46.008;11.144;2023-12-29T01:29:50;13.27;;;7.47;;
45642;SDS011;31358;46.008;11.144;2023-12-29T01:32:17;11.10;;;6.88;;
45642;SDS011;31358;46.008;11.144;2023-12-29T01:34:43;12.63;;;8.95;;
45642;SDS011;31358;46.008;11.144;2023-12-29T01:37:09;11.00;;;7.30;;
45642;SDS011;31358;46.008;11.144;2023-12-29T01:39:35;13.25;;;7.82;;
45642;SDS011;31358;46.008;11.144;2023-12-29T01:42:01;12.00;;;6.82;;
45642;SDS011;31358;46.008;11.144;2023-12-29T01:44:26;13.90;;;8.13;;
45642;SDS011;31358;46.008;11.144;2023-12-29T01:46:57;10.13;;;6.78;;
45642;SDS011;31358;46.008;11.144;2023-12-29T01:49:24;12.55;;;7.05;;
45642;SDS011;31358;46.008;11.144;2023-12-29T01:51:54;13.55;;;7.82;;
45642;SDS011;31358;46.008;11.144;2023-12-29T01:54:23;12.20;;;7.80;;
45642;SDS011;31358;46.008;11.144;2023-12-29T01:56:51;13.77;;;7.85;;
45642;SDS011;31358;46.008;11.144;2023-12-29T01:59:20;12.60;;;7.72;;
45642;SDS011;31358;46.008;11.144;2023-12-29T02:01:47;11.65;;;7.47;;
45642;SDS011;31358;46.008;11.144;2023-12-29T02:04:13;10.90;;;6.68;;
45642;SDS011;31358;46.008;11.144;2023-12-29T02:06:40;14.05;;;7.68;;
45642;SDS011;31358;46.008;11.144;2023-12-29T02:09:06;12.40;;;7.78;;
45642;SDS011;31358;46.008;11.144;2023-12-29T02:11:32;14.57;;;7.88;;
45642;SDS011;31358;46.008;11.144;2023-12-29T02:13:58;11.98;;;7.40;;
45642;SDS011;31358;46.008;11.144;2023-12-29T02:19:20;10.63;;;6.78;;
45642;SDS011;31358;46.008;11.144;2023-12-29T02:21:54;11.00;;;6.95;;
45642;SDS011;31358;46.008;11.144;2023-12-29T02:24:19;11.07;;;7.05;;
45642;SDS011;31358;46.008;11.144;2023-12-29T02:26:47;12.07;;;7.45;;
45642;SDS011;31358;46.008;11.144;2023-12-29T02:29:19;12.30;;;7.00;;
45642;SDS011;31358;46.008;11.144;2023-12-29T02:31:46;12.52;;;7.28;;
45642;SDS011;31358;46.008;11.144;2023-12-29T02:34:15;10.27;;;6.47;;
45642;SDS011;31358;46.008;11.144;2023-12-29T02:36:44;11.05;;;6.30;;
45642;SDS011;31358;46.008;11.144;2023-12-29T02:39:10;9.52;;;6.75;;
45642;SDS011;31358;46.008;11.144;2023-12-29T02:41:37;12.30;;;7.22;;
45642;SDS011;31358;46.008;11.144;2023-12-29T02:44:03;12.13;;;7.28;;
45642;SDS011;31358;46.008;11.144;2023-12-29T02:46:29;11.27;;;6.82;;
45642;SDS011;31358;46.008;11.144;2023-12-29T02:48:55;13.95;;;7.65;;
45642;SDS011;31358;46.008;11.144;2023-12-29T02:51:21;10.13;;;6.95;;
45642;SDS011;31358;46.008;11.144;2023-12-29T02:53:47;11.65;;;7.07;;
45642;SDS011;31358;46.008;11.144;2023-12-29T02:56:14;13.57;;;7.38;;
45642;SDS011;31358;46.008;11.144;2023-12-29T02:58:39;11.10;;;7.20;;
45642;SDS011;31358;46.008;11.144;2023-12-29T03:01:05;12.80;;;7.07;;
45642;SDS011;31358;46.008;11.144;2023-12-29T03:03:31;9.32;;;6.55;;
45642;SDS011;31358;46.008;11.144;2023-12-29T03:05:57;12.27;;;6.97;;
45642;SDS011;31358;46.008;11.144;2023-12-29T03:08:22;14.75;;;8.68;;
45642;SDS011;31358;46.008;11.144;2023-12-29T03:10:48;12.95;;;7.85;;
45642;SDS011;31358;46.008;11.144;2023-12-29T03:13:14;15.30;;;7.85;;
45642;SDS011;31358;46.008;11.144;2023-12-29T03:15:39;12.43;;;7.57;;
45642;SDS011;31358;46.008;11.144;2023-12-29T03:18:05;14.20;;;7.05;;
45642;SDS011;31358;46.008;11.144;2023-12-29T03:20:31;10.88;;;7.40;;
45642;SDS011;31358;46.008;11.144;2023-12-29T03:22:56;13.20;;;6.57;;
45642;SDS011;31358;46.008;11.144;2023-12-29T03:25:22;12.88;;;8.05;;
45642;SDS011;31358;46.008;11.144;2023-12-29T03:27:48;12.20;;;6.72;;
45642;SDS011;31358;46.008;11.144;2023-12-29T03:30:13;11.85;;;6.85;;
45642;SDS011;31358;46.008;11.144;2023-12-29T03:32:39;13.35;;;6.40;;
45642;SDS011;31358;46.008;11.144;2023-12-29T03:35:05;12.63;;;6.60;;
45642;SDS011;31358;46.008;11.144;2023-12-29T03:37:30;11.48;;;6.93;;
45642;SDS011;31358;46.008;11.144;2023-12-29T03:39:56;12.32;;;6.40;;
45642;SDS011;31358;46.008;11.144;2023-12-29T03:42:22;11.60;;;7.18;;
45642;SDS011;31358;46.008;11.144;2023-12-29T03:44:47;13.48;;;7.25;;
45642;SDS011;31358;46.008;11.144;2023-12-29T03:47:13;11.20;;;7.07;;
45642;SDS011;31358;46.008;11.144;2023-12-29T03:49:39;15.65;;;9.10;;
45642;SDS011;31358;46.008;11.144;2023-12-29T03:52:04;16.02;;;7.97;;
45642;SDS011;31358;46.008;11.144;2023-12-29T03:54:30;13.57;;;7.60;;
45642;SDS011;31358;46.008;11.144;2023-12-29T03:56:56;13.00;;;7.68;;
45642;SDS011;31358;46.008;11.144;2023-12-29T03:59:21;15.52;;;8.18;;
45642;SDS011;31358;46.008;11.144;2023-12-29T04:01:47;12.48;;;8.27;;
45642;SDS011;31358;46.008;11.144;2023-12-29T04:04:13;13.00;;;8.40;;
45642;SDS011;31358;46.008;11.144;2023-12-29T04:06:38;13.85;;;8.00;;
45642;SDS011;31358;46.008;11.144;2023-12-29T04:09:04;14.00;;;7.97;;
45642;SDS011;31358;46.008;11.144;2023-12-29T04:11:30;12.45;;;7.50;;
45642;SDS011;31358;46.008;11.144;2023-12-29T04:13:55;12.75;;;7.68;;
45642;SDS011;31358;46.008;11.144;2023-12-29T04:16:21;13.63;;;7.90;;
45642;SDS011;31358;46.008;11.144;2023-12-29T04:18:47;12.13;;;7.32;;
45642;SDS011;31358;46.008;11.144;2023-12-29T04:21:15;15.32;;;7.57;;
45642;SDS011;31358;46.008;11.144;2023-12-29T04:23:41;10.30;;;7.55;;
45642;SDS011;31358;46.008;11.144;2023-12-29T04:26:07;14.38;;;8.30;;
45642;SDS011;31358;46.008;11.144;2023-12-29T04:28:33;14.20;;;9.07;;
45642;SDS011;31358;46.008;11.144;2023-12-29T04:30:58;12.57;;;7.85;;
45642;SDS011;31358;46.008;11.144;2023-12-29T04:33:24;13.32;;;8.10;;
45642;SDS011;31358;46.008;11.144;2023-12-29T04:35:50;11.50;;;6.82;;
45642;SDS011;31358;46.008;11.144;2023-12-29T04:38:16;11.35;;;7.63;;
45642;SDS011;31358;46.008;11.144;2023-12-29T04:40:44;9.23;;;6.45;;
45642;SDS011;31358;46.008;11.144;2023-12-29T04:43:10;11.30;;;7.10;;
45642;SDS011;31358;46.008;11.144;2023-12-29T04:45:35;11.38;;;6.95;;
45642;SDS011;31358;46.008;11.144;2023-12-29T04:48:01;12.35;;;6.85;;
45642;SDS011;31358;46.008;11.144;2023-12-29T04:50:27;12.95;;;6.38;;
45642;SDS011;31358;46.008;11.144;2023-12-29T04:52:52;11.18;;;6.40;;
45642;SDS011;31358;46.008;11.144;2023-12-29T04:55:18;10.82;;;6.20;;
45642;SDS011;31358;46.008;11.144;2023-12-29T04:57:43;12.40;;;6.55;;
45642;SDS011;31358;46.008;11.144;2023-12-29T05:00:09;9.35;;;5.90;;
45642;SDS011;31358;46.008;11.144;2023-12-29T05:02:35;11.63;;;7.22;;
45642;SDS011;31358;46.008;11.144;2023-12-29T05:05:01;11.02;;;6.72;;
45642;SDS011;31358;46.008;11.144;2023-12-29T05:07:27;9.20;;;6.15;;
45642;SDS011;31358;46.008;11.144;2023-12-29T05:09:52;11.15;;;6.07;;
45642;SDS011;31358;46.008;11.144;2023-12-29T05:12:18;13.82;;;6.28;;
45642;SDS011;31358;46.008;11.144;2023-12-29T05:14:44;11.60;;;6.05;;
45642;SDS011;31358;46.008;11.144;2023-12-29T05:17:09;11.75;;;6.40;;
45642;SDS011;31358;46.008;11.144;2023-12-29T05:19:35;9.25;;;5.70;;
45642;SDS011;31358;46.008;11.144;2023-12-29T05:22:01;10.85;;;6.43;;
45642;SDS011;31358;46.008;11.144;2023-12-29T05:24:26;10.93;;;6.85;;
45642;SDS011;31358;46.008;11.144;2023-12-29T05:26:52;10.55;;;5.35;;
45642;SDS011;31358;46.008;11.144;2023-12-29T05:29:17;10.90;;;6.28;;
45642;SDS011;31358;46.008;11.144;2023-12-29T05:31:43;13.02;;;6.88;;
45642;SDS011;31358;46.008;11.144;2023-12-29T05:34:09;13.07;;;6.45;;
45642;SDS011;31358;46.008;11.144;2023-12-29T05:36:35;11.18;;;7.45;;
45642;SDS011;31358;46.008;11.144;2023-12-29T05:39:01;13.68;;;10.00;;
45642;SDS011;31358;46.008;11.144;2023-12-29T05:41:27;12.63;;;7.32;;
45642;SDS011;31358;46.008;11.144;2023-12-29T05:43:53;16.58;;;10.05;;
45642;SDS011;31358;46.008;11.144;2023-12-29T05:46:18;11.35;;;7.93;;
45642;SDS011;31358;46.008;11.144;2023-12-29T05:48:44;10.82;;;7.57;;
45642;SDS011;31358;46.008;11.144;2023-12-29T05:51:12;13.25;;;8.32;;
45642;SDS011;31358;46.008;11.144;2023-12-29T05:53:41;15.68;;;7.55;;
45642;SDS011;31358;46.008;11.144;2023-12-29T05:56:09;12.48;;;6.60;;
45642;SDS011;31358;46.008;11.144;2023-12-29T05:58:37;10.35;;;7.13;;
45642;SDS011;31358;46.008;11.144;2023-12-29T06:01:02;11.07;;;6.63;;
45642;SDS011;31358;46.008;11.144;2023-12-29T06:03:28;10.93;;;6.45;;
45642;SDS011;31358;46.008;11.144;2023-12-29T06:05:54;14.68;;;8.18;;
45642;SDS011;31358;46.008;11.144;2023-12-29T06:08:19;15.13;;;7.43;;
45642;SDS011;31358;46.008;11.144;2023-12-29T06:10:45;12.57;;;7.70;;
45642;SDS011;31358;46.008;11.144;2023-12-29T06:13:11;10.93;;;6.43;;
45642;SDS011;31358;46.008;11.144;2023-12-29T06:15:36;10.27;;;6.68;;
45642;SDS011;31358;46.008;11.144;2023-12-29T06:18:02;10.45;;;7.00;;
45642;SDS011;31358;46.008;11.144;2023-12-29T06:20:28;12.43;;;7.13;;
45642;SDS011;31358;46.008;11.144;2023-12-29T06:22:55;12.27;;;6.20;;
45642;SDS011;31358;46.008;11.144;2023-12-29T06:25:20;11.02;;;7.13;;
45642;SDS011;31358;46.008;11.144;2023-12-29T06:27:47;9.85;;;5.88;;
45642;SDS011;31358;46.008;11.144;2023-12-29T06:30:13;12.98;;;6.88;;
45642;SDS011;31358;46.008;11.144;2023-12-29T06:32:39;9.45;;;5.75;;
45642;SDS011;31358;46.008;11.144;2023-12-29T06:35:05;10.60;;;6.95;;
45642;SDS011;31358;46.008;11.144;2023-12-29T06:37:32;13.40;;;7.15;;
45642;SDS011;31358;46.008;11.144;2023-12-29T06:39:58;12.32;;;6.78;;
45642;SDS011;31358;46.008;11.144;2023-12-29T06:42:23;11.50;;;6.07;;
45642;SDS011;31358;46.008;11.144;2023-12-29T06:44:49;10.95;;;6.13;;
45642;SDS011;31358;46.008;11.144;2023-12-29T06:47:15;9.70;;;6.03;;
45642;SDS011;31358;46.008;11.144;2023-12-29T06:49:41;10.60;;;6.35;;
45642;SDS011;31358;46.008;11.144;2023-12-29T06:52:06;10.85;;;6.32;;
45642;SDS011;31358;46.008;11.144;2023-12-29T06:54:33;10.50;;;5.97;;
45642;SDS011;31358;46.008;11.144;2023-12-29T06:56:59;10.07;;;6.82;;
45642;SDS011;31358;46.008;11.144;2023-12-29T06:59:24;10.25;;;5.90;;
45642;SDS011;31358;46.008;11.144;2023-12-29T07:01:50;10.13;;;5.97;;
45642;SDS011;31358;46.008;11.144;2023-12-29T07:04:16;11.07;;;5.93;;
45642;SDS011;31358;46.008;11.144;2023-12-29T07:06:42;10.27;;;6.13;;
45642;SDS011;31358;46.008;11.144;2023-12-29T07:09:08;11.35;;;6.13;;
45642;SDS011;31358;46.008;11.144;2023-12-29T07:11:34;9.50;;;5.38;;
45642;SDS011;31358;46.008;11.144;2023-12-29T07:14:00;9.25;;;5.60;;
45642;SDS011;31358;46.008;11.144;2023-12-29T07:16:26;9.95;;;5.80;;
45642;SDS011;31358;46.008;11.144;2023-12-29T07:18:52;10.20;;;5.75;;
45642;SDS011;31358;46.008;11.144;2023-12-29T07:21:18;9.38;;;5.35;;
45642;SDS011;31358;46.008;11.144;2023-12-29T07:23:44;9.25;;;6.57;;
45642;SDS011;31358;46.008;11.144;2023-12-29T07:26:10;15.00;;;7.68;;
45642;SDS011;31358;46.008;11.144;2023-12-29T07:28:35;12.90;;;6.82;;
45642;SDS011;31358;46.008;11.144;2023-12-29T07:31:01;10.57;;;7.63;;
45642;SDS011;31358;46.008;11.144;2023-12-29T07:33:27;13.98;;;8.90;;
45642;SDS011;31358;46.008;11.144;2023-12-29T07:35:53;12.60;;;7.55;;
45642;SDS011;31358;46.008;11.144;2023-12-29T07:38:19;10.57;;;7.22;;
45642;SDS011;31358;46.008;11.144;2023-12-29T07:40:45;11.70;;;7.15;;
45642;SDS011;31358;46.008;11.144;2023-12-29T07:43:12;12.20;;;6.97;;
45642;SDS011;31358;46.008;11.144;2023-12-29T07:45:38;12.50;;;6.22;;
45642;SDS011;31358;46.008;11.144;2023-12-29T07:48:04;11.10;;;6.50;;
45642;SDS011;31358;46.008;11.144;2023-12-29T07:50:30;11.70;;;6.30;;
45642;SDS011;31358;46.008;11.144;2023-12-29T07:52:56;12.10;;;6.45;;
45642;SDS011;31358;46.008;11.144;2023-12-29T07:55:22;11.85;;;6.20;;
45642;SDS011;31358;46.008;11.144;2023-12-29T07:57:47;9.77;;;6.18;;
45642;SDS011;31358;46.008;11.144;2023-12-29T08:00:16;13.70;;;6.60;;
45642;SDS011;31358;46.008;11.144;2023-12-29T08:02:42;13.73;;;7.85;;
45642;SDS011;31358;46.008;11.144;2023-12-29T08:05:08;11.95;;;6.90;;
45642;SDS011;31358;46.008;11.144;2023-12-29T08:07:34;14.23;;;8.43;;
45642;SDS011;31358;46.008;11.144;2023-12-29T08:10:02;13.18;;;7.55;;
45642;SDS011;31358;46.008;11.144;2023-12-29T08:12:29;12.35;;;6.13;;
45642;SDS011;31358;46.008;11.144;2023-12-29T08:14:55;10.88;;;6.35;;
45642;SDS011;31358;46.008;11.144;2023-12-29T08:17:21;9.20;;;5.85;;
45642;SDS011;31358;46.008;11.144;2023-12-29T08:19:47;16.10;;;6.57;;
45642;SDS011;31358;46.008;11.144;2023-12-29T08:22:13;13.25;;;7.15;;
45642;SDS011;31358;46.008;11.144;2023-12-29T08:24:41;12.38;;;6.93;;
45642;SDS011;31358;46.008;11.144;2023-12-29T08:27:08;11.95;;;6.55;;
45642;SDS011;31358;46.008;11.144;2023-12-29T08:29:35;9.95;;;6.57;;
45642;SDS011;31358;46.008;11.144;2023-12-29T08:32:01;9.68;;;6.47;;
45642;SDS011;31358;46.008;11.144;2023-12-29T08:34:27;12.95;;;6.25;;
45642;SDS011;31358;46.008;11.144;2023-12-29T08:36:53;10.27;;;6.63;;
45642;SDS011;31358;46.008;11.144;2023-12-29T08:39:19;12.95;;;7.43;;
45642;SDS011;31358;46.008;11.144;2023-12-29T08:41:44;11.63;;;6.30;;
45642;SDS011;31358;46.008;11.144;2023-12-29T08:44:11;13.13;;;7.10;;
45642;SDS011;31358;46.008;11.144;2023-12-29T08:46:37;10.80;;;5.93;;
45642;SDS011;31358;46.008;11.144;2023-12-29T08:49:03;12.27;;;6.88;;
45642;SDS011;31358;46.008;11.144;2023-12-29T08:51:29;13.35;;;7.78;;
45642;SDS011;31358;46.008;11.144;2023-12-29T08:53:54;18.15;;;8.45;;
45642;SDS011;31358;46.008;11.144;2023-12-29T08:56:20;13.20;;;8.57;;
45642;SDS011;31358;46.008;11.144;2023-12-29T08:58:46;17.63;;;9.63;;
45642;SDS011;31358;46.008;11.144;2023-12-29T09:01:12;15.13;;;9.15;;
45642;SDS011;31358;46.008;11.144;2023-12-29T09:03:37;16.27;;;9.93;;
45642;SDS011;31358;46.008;11.144;2023-12-29T09:06:03;14.63;;;8.70;;
45642;SDS011;31358;46.008;11.144;2023-12-29T09:08:29;16.02;;;9.45;;
45642;SDS011;31358;46.008;11.144;2023-12-29T09:10:55;16.00;;;9.43;;
45642;SDS011;31358;46.008;11.144;2023-12-29T09:13:21;16.60;;;9.25;;
45642;SDS011;31358;46.008;11.144;2023-12-29T09:15:50;16.40;;;9.48;;
45642;SDS011;31358;46.008;11.144;2023-12-29T09:18:15;16.85;;;9.55;;
45642;SDS011;31358;46.008;11.144;2023-12-29T09:20:41;14.15;;;9.10;;
45642;SDS011;31358;46.008;11.144;2023-12-29T09:23:07;17.30;;;10.02;;
45642;SDS011;31358;46.008;11.144;2023-12-29T09:25:32;19.05;;;8.95;;
45642;SDS011;31358;46.008;11.144;2023-12-29T09:27:58;15.38;;;8.80;;
45642;SDS011;31358;46.008;11.144;2023-12-29T09:30:24;20.83;;;9.73;;
45642;SDS011;31358;46.008;11.144;2023-12-29T09:32:49;17.95;;;8.90;;
45642;SDS011;31358;46.008;11.144;2023-12-29T09:35:15;16.48;;;9.30;;
45642;SDS011;31358;46.008;11.144;2023-12-29T09:37:42;19.05;;;9.68;;
45642;SDS011;31358;46.008;11.144;2023-12-29T09:40:09;16.23;;;9.23;;
45642;SDS011;31358;46.008;11.144;2023-12-29T09:42:35;17.08;;;9.88;;
45642;SDS011;31358;46.008;11.144;2023-12-29T09:45:03;17.00;;;10.15;;
45642;SDS011;31358;46.008;11.144;2023-12-29T09:47:34;14.52;;;9.73;;
45642;SDS011;31358;46.008;11.144;2023-12-29T09:50:03;17.85;;;9.68;;
45642;SDS011;31358;46.008;11.144;2023-12-29T09:52:30;13.48;;;8.13;;
45642;SDS011;31358;46.008;11.144;2023-12-29T09:54:58;15.40;;;8.63;;
45642;SDS011;31358;46.008;11.144;2023-12-29T09:57:24;14.90;;;9.00;;
45642;SDS011;31358;46.008;11.144;2023-12-29T09:59:50;16.13;;;10.32;;
45642;SDS011;31358;46.008;11.144;2023-12-29T10:02:20;16.27;;;8.80;;
45642;SDS011;31358;46.008;11.144;2023-12-29T10:04:47;14.40;;;9.48;;
45642;SDS011;31358;46.008;11.144;2023-12-29T10:07:15;15.15;;;10.07;;
45642;SDS011;31358;46.008;11.144;2023-12-29T10:09:48;17.08;;;10.68;;
45642;SDS011;31358;46.008;11.144;2023-12-29T10:12:17;16.52;;;10.07;;
45642;SDS011;31358;46.008;11.144;2023-12-29T10:23:15;14.63;;;9.68;;
45642;SDS011;31358;46.008;11.144;2023-12-29T10:25:45;18.83;;;9.68;;
45642;SDS011;31358;46.008;11.144;2023-12-29T10:28:12;18.67;;;8.73;;
45642;SDS011;31358;46.008;11.144;2023-12-29T10:30:38;17.05;;;9.88;;
45642;SDS011;31358;46.008;11.144;2023-12-29T10:33:05;13.88;;;8.65;;
45642;SDS011;31358;46.008;11.144;2023-12-29T10:35:31;13.05;;;7.80;;
45642;SDS011;31358;46.008;11.144;2023-12-29T10:38:07;14.48;;;8.32;;
45642;SDS011;31358;46.008;11.144;2023-12-29T10:40:34;15.38;;;9.43;;
45642;SDS011;31358;46.008;11.144;2023-12-29T10:43:00;14.00;;;9.18;;
45642;SDS011;31358;46.008;11.144;2023-12-29T10:45:31;13.57;;;8.40;;
45642;SDS011;31358;46.008;11.144;2023-12-29T10:47:58;12.98;;;7.95;;
45642;SDS011;31358;46.008;11.144;2023-12-29T10:50:25;15.25;;;9.40;;
45642;SDS011;31358;46.008;11.144;2023-12-29T10:52:52;17.77;;;8.73;;
45642;SDS011;31358;46.008;11.144;2023-12-29T10:55:40;11.85;;;8.20;;
45642;SDS011;31358;46.008;11.144;2023-12-29T10:58:05;14.18;;;8.70;;
45642;SDS011;31358;46.008;11.144;2023-12-29T11:00:31;14.05;;;9.15;;
45642;SDS011;31358;46.008;11.144;2023-12-29T11:02:58;17.08;;;8.63;;
45642;SDS011;31358;46.008;11.144;2023-12-29T11:05:25;12.48;;;8.75;;
45642;SDS011;31358;46.008;11.144;2023-12-29T11:07:51;15.48;;;8.52;;
45642;SDS011;31358;46.008;11.144;2023-12-29T11:10:19;15.23;;;8.88;;
45642;SDS011;31358;46.008;11.144;2023-12-29T11:12:48;13.55;;;8.57;;
45642;SDS011;31358;46.008;11.144;2023-12-29T11:15:14;14.73;;;8.45;;
45642;SDS011;31358;46.008;11.144;2023-12-29T11:17:41;13.07;;;8.60;;
45642;SDS011;31358;46.008;11.144;2023-12-29T11:20:15;12.98;;;8.23;;
45642;SDS011;31358;46.008;11.144;2023-12-29T11:22:42;13.63;;;8.18;;
45642;SDS011;31358;46.008;11.144;2023-12-29T11:25:08;14.70;;;8.32;;
45642;SDS011;31358;46.008;11.144;2023-12-29T11:27:35;12.10;;;7.07;;
45642;SDS011;31358;46.008;11.144;2023-12-29T11:30:01;11.23;;;7.70;;
45642;SDS011;31358;46.008;11.144;2023-12-29T11:32:35;12.68;;;6.95;;
45642;SDS011;31358;46.008;11.144;2023-12-29T11:40:26;15.52;;;8.00;;
45642;SDS011;31358;46.008;11.144;2023-12-29T11:43:00;15.07;;;8.02;;
45642;SDS011;31358;46.008;11.144;2023-12-29T11:45:30;13.25;;;8.18;;
45642;SDS011;31358;46.008;11.144;2023-12-29T11:47:59;13.35;;;7.03;;
45642;SDS011;31358;46.008;11.144;2023-12-29T11:50:39;14.55;;;7.72;;
45642;SDS011;31358;46.008;11.144;2023-12-29T11:53:06;12.10;;;8.20;;
45642;SDS011;31358;46.008;11.144;2023-12-29T11:55:37;14.00;;;7.95;;
45642;SDS011;31358;46.008;11.144;2023-12-29T11:58:04;13.38;;;8.13;;
45642;SDS011;31358;46.008;11.144;2023-12-29T12:00:48;13.98;;;7.90;;
45642;SDS011;31358;46.008;11.144;2023-12-29T12:03:15;13.38;;;8.18;;
45642;SDS011;31358;46.008;11.144;2023-12-29T12:05:45;11.40;;;7.68;;
45642;SDS011;31358;46.008;11.144;2023-12-29T12:08:25;12.75;;;7.47;;
45642;SDS011;31358;46.008;11.144;2023-12-29T12:11:45;16.42;;;8.25;;
45642;SDS011;31358;46.008;11.144;2023-12-29T12:13:56;14.43;;;7.78;;
45642;SDS011;31358;46.008;11.144;2023-12-29T12:19:12;15.02;;;9.40;;
45642;SDS011;31358;46.008;11.144;2023-12-29T12:21:40;15.85;;;9.07;;
45642;SDS011;31358;46.008;11.144;2023-12-29T12:24:06;10.45;;;7.15;;
45642;SDS011;31358;46.008;11.144;2023-12-29T12:26:32;15.23;;;7.90;;
45642;SDS011;31358;46.008;11.144;2023-12-29T12:28:59;12.73;;;8.00;;
45642;SDS011;31358;46.008;11.144;2023-12-29T12:31:25;14.10;;;8.05;;
45642;SDS011;31358;46.008;11.144;2023-12-29T12:36:25;13.27;;;8.15;;
45642;SDS011;31358;46.008;11.144;2023-12-29T12:38:55;14.43;;;7.97;;
45642;SDS011;31358;46.008;11.144;2023-12-29T12:41:22;13.70;;;8.25;;
45642;SDS011;31358;46.008;11.144;2023-12-29T12:44:00;16.02;;;8.73;;
45642;SDS011;31358;46.008;11.144;2023-12-29T12:49:13;14.07;;;8.68;;
45642;SDS011;31358;46.008;11.144;2023-12-29T12:51:39;14.70;;;7.97;;
45642;SDS011;31358;46.008;11.144;2023-12-29T12:54:05;13.70;;;8.27;;
45642;SDS011;31358;46.008;11.144;2023-12-29T12:56:32;13.80;;;8.60;;
45642;SDS011;31358;46.008;11.144;2023-12-29T12:58:59;14.07;;;8.20;;
45642;SDS011;31358;46.008;11.144;2023-12-29T13:01:29;18.85;;;8.38;;
45642;SDS011;31358;46.008;11.144;2023-12-29T13:04:00;13.32;;;8.63;;
45642;SDS011;31358;46.008;11.144;2023-12-29T13:06:28;13.48;;;9.07;;
45642;SDS011;31358;46.008;11.144;2023-12-29T13:08:53;12.60;;;8.60;;
45642;SDS011;31358;46.008;11.144;2023-12-29T13:11:19;14.50;;;8.10;;
45642;SDS011;31358;46.008;11.144;2023-12-29T13:13:50;14.27;;;8.15;;
45642;SDS011;31358;46.008;11.144;2023-12-29T13:21:50;13.05;;;8.45;;
45642;SDS011;31358;46.008;11.144;2023-12-29T13:24:20;17.67;;;8.52;;
45642;SDS011;31358;46.008;11.144;2023-12-29T13:26:51;13.52;;;8.13;;
45642;SDS011;31358;46.008;11.144;2023-12-29T13:29:19;12.75;;;8.45;;
45642;SDS011;31358;46.008;11.144;2023-12-29T13:31:47;15.52;;;8.70;;
45642;SDS011;31358;46.008;11.144;2023-12-29T13:34:18;12.55;;;7.75;;
45642;SDS011;31358;46.008;11.144;2023-12-29T13:36:54;15.77;;;7.28;;
45642;SDS011;31358;46.008;11.144;2023-12-29T13:41:56;12.60;;;7.93;;
45642;SDS011;31358;46.008;11.144;2023-12-29T13:44:24;13.30;;;7.82;;
45642;SDS011;31358;46.008;11.144;2023-12-29T13:46:53;13.55;;;7.93;;
45642;SDS011;31358;46.008;11.144;2023-12-29T13:49:20;11.10;;;6.78;;
45642;SDS011;31358;46.008;11.144;2023-12-29T13:51:46;15.40;;;7.88;;
45642;SDS011;31358;46.008;11.144;2023-12-29T13:54:11;14.80;;;7.38;;
45642;SDS011;31358;46.008;11.144;2023-12-29T13:56:38;15.27;;;6.80;;
45642;SDS011;31358;46.008;11.144;2023-12-29T13:59:04;11.02;;;6.80;;
45642;SDS011;31358;46.008;11.144;2023-12-29T14:01:38;13.50;;;6.93;;
45642;SDS011;31358;46.008;11.144;2023-12-29T14:04:06;12.65;;;7.15;;
45642;SDS011;31358;46.008;11.144;2023-12-29T14:06:42;11.52;;;7.15;;
45642;SDS011;31358;46.008;11.144;2023-12-29T14:09:15;14.60;;;8.38;;
45642;SDS011;31358;46.008;11.144;2023-12-29T14:11:48;14.50;;;7.38;;
45642;SDS011;31358;46.008;11.144;2023-12-29T14:14:14;12.98;;;7.18;;
45642;SDS011;31358;46.008;11.144;2023-12-29T14:16:46;12.90;;;8.15;;
45642;SDS011;31358;46.008;11.144;2023-12-29T14:19:12;11.00;;;7.18;;
45642;SDS011;31358;46.008;11.144;2023-12-29T14:21:37;11.15;;;7.18;;
45642;SDS011;31358;46.008;11.144;2023-12-29T14:24:13;13.25;;;6.38;;
45642;SDS011;31358;46.008;11.144;2023-12-29T14:26:58;12.25;;;7.07;;
45642;SDS011;31358;46.008;11.144;2023-12-29T14:29:24;11.75;;;7.00;;
45642;SDS011;31358;46.008;11.144;2023-12-29T14:31:51;12.88;;;7.75;;
45642;SDS011;31358;46.008;11.144;2023-12-29T14:34:17;12.65;;;7.07;;
45642;SDS011;31358;46.008;11.144;2023-12-29T14:36:44;24.92;;;13.23;;
45642;SDS011;31358;46.008;11.144;2023-12-29T14:39:11;16.17;;;8.13;;
45642;SDS011;31358;46.008;11.144;2023-12-29T14:41:37;11.00;;;6.63;;
45642;SDS011;31358;46.008;11.144;2023-12-29T14:44:03;13.57;;;8.38;;
45642;SDS011;31358;46.008;11.144;2023-12-29T14:46:29;12.50;;;7.10;;
45642;SDS011;31358;46.008;11.144;2023-12-29T14:48:56;19.63;;;7.10;;
45642;SDS011;31358;46.008;11.144;2023-12-29T14:51:23;12.68;;;6.65;;
45642;SDS011;31358;46.008;11.144;2023-12-29T14:53:49;10.20;;;6.55;;